sensor_id;sensor_type;location;lat;lon;timestamp;temperature;humidity
36424;DHT22;22458;45.328;9.514;2023-02-08T00:01:23;4.00;69.30
36424;DHT22;22458;45.328;9.514;2023-02-08T00:03:50;4.00;69.30
36424;DHT22;22458;45.328;9.514;2023-02-08T00:06:16;3.90;69.30
36424;DHT22;22458;45.328;9.514;2023-02-08T00:08:42;3.90;69.50
36424;DHT22;22458;45.328;9.514;2023-02-08T00:11:08;3.80;69.60
36424;DHT22;22458;45.328;9.514;2023-02-08T00:13:36;3.80;69.70
36424;DHT22;22458;45.328;9.514;2023-02-08T00:16:02;3.60;69.90
36424;DHT22;22458;45.328;9.514;2023-02-08T00:18:28;3.50;70.10
36424;DHT22;22458;45.328;9.514;2023-02-08T00:20:54;3.40;70.30
36424;DHT22;22458;45.328;9.514;2023-02-08T00:23:22;3.40;70.40
36424;DHT22;22458;45.328;9.514;2023-02-08T00:25:48;3.50;70.30
36424;DHT22;22458;45.328;9.514;2023-02-08T00:28:15;3.50;70.30
36424;DHT22;22458;45.328;9.514;2023-02-08T00:30:42;3.50;70.40
36424;DHT22;22458;45.328;9.514;2023-02-08T00:33:07;3.40;70.40
36424;DHT22;22458;45.328;9.514;2023-02-08T00:35:33;3.30;70.50
36424;DHT22;22458;45.328;9.514;2023-02-08T00:37:59;3.20;70.70
36424;DHT22;22458;45.328;9.514;2023-02-08T00:40:26;3.30;70.90
36424;DHT22;22458;45.328;9.514;2023-02-08T00:42:51;3.10;71.00
36424;DHT22;22458;45.328;9.514;2023-02-08T00:45:17;3.10;71.30
36424;DHT22;22458;45.328;9.514;2023-02-08T00:47:43;3.00;71.40
36424;DHT22;22458;45.328;9.514;2023-02-08T00:50:10;3.00;71.60
36424;DHT22;22458;45.328;9.514;2023-02-08T00:52:36;3.00;71.80
36424;DHT22;22458;45.328;9.514;2023-02-08T00:55:04;3.00;71.70
36424;DHT22;22458;45.328;9.514;2023-02-08T00:57:31;3.10;71.60
36424;DHT22;22458;45.328;9.514;2023-02-08T00:59:57;3.20;71.40
36424;DHT22;22458;45.328;9.514;2023-02-08T01:02:24;3.20;71.20
36424;DHT22;22458;45.328;9.514;2023-02-08T01:04:50;3.20;71.10
36424;DHT22;22458;45.328;9.514;2023-02-08T01:07:16;3.30;71.20
36424;DHT22;22458;45.328;9.514;2023-02-08T01:09:42;3.20;71.10
36424;DHT22;22458;45.328;9.514;2023-02-08T01:12:08;3.30;71.10
36424;DHT22;22458;45.328;9.514;2023-02-08T01:14:33;3.30;71.10
36424;DHT22;22458;45.328;9.514;2023-02-08T01:17:05;3.30;71.00
36424;DHT22;22458;45.328;9.514;2023-02-08T01:19:31;3.30;71.10
36424;DHT22;22458;45.328;9.514;2023-02-08T01:21:57;3.30;71.10
36424;DHT22;22458;45.328;9.514;2023-02-08T01:24:23;3.20;71.10
36424;DHT22;22458;45.328;9.514;2023-02-08T01:26:49;3.20;71.20
36424;DHT22;22458;45.328;9.514;2023-02-08T01:29:15;3.20;71.40
36424;DHT22;22458;45.328;9.514;2023-02-08T01:31:42;3.10;71.50
36424;DHT22;22458;45.328;9.514;2023-02-08T01:34:09;3.00;71.80
36424;DHT22;22458;45.328;9.514;2023-02-08T01:36:36;3.00;72.00
36424;DHT22;22458;45.328;9.514;2023-02-08T01:39:03;2.90;72.20
36424;DHT22;22458;45.328;9.514;2023-02-08T01:41:37;2.90;72.70
36424;DHT22;22458;45.328;9.514;2023-02-08T01:46:35;2.80;73.00
36424;DHT22;22458;45.328;9.514;2023-02-08T01:49:27;2.80;73.00
36424;DHT22;22458;45.328;9.514;2023-02-08T01:52:16;2.70;73.20
36424;DHT22;22458;45.328;9.514;2023-02-08T01:54:49;2.70;73.40
36424;DHT22;22458;45.328;9.514;2023-02-08T01:57:18;2.60;74.00
36424;DHT22;22458;45.328;9.514;2023-02-08T01:59:51;2.70;73.70
36424;DHT22;22458;45.328;9.514;2023-02-08T02:02:20;2.70;73.70
36424;DHT22;22458;45.328;9.514;2023-02-08T02:04:47;2.70;73.70
36424;DHT22;22458;45.328;9.514;2023-02-08T02:07:15;2.80;73.50
36424;DHT22;22458;45.328;9.514;2023-02-08T02:12:40;2.70;73.20
36424;DHT22;22458;45.328;9.514;2023-02-08T02:15:07;2.80;73.80
36424;DHT22;22458;45.328;9.514;2023-02-08T02:17:34;2.80;73.20
36424;DHT22;22458;45.328;9.514;2023-02-08T02:43:49;2.80;72.90
36424;DHT22;22458;45.328;9.514;2023-02-08T02:46:39;2.80;72.90
36424;DHT22;22458;45.328;9.514;2023-02-08T02:49:20;2.80;72.90
36424;DHT22;22458;45.328;9.514;2023-02-08T02:52:11;2.70;72.80
36424;DHT22;22458;45.328;9.514;2023-02-08T02:54:41;2.60;73.00
36424;DHT22;22458;45.328;9.514;2023-02-08T02:57:11;2.50;73.30
36424;DHT22;22458;45.328;9.514;2023-02-08T02:59:39;2.50;73.40
36424;DHT22;22458;45.328;9.514;2023-02-08T03:02:06;2.60;73.30
36424;DHT22;22458;45.328;9.514;2023-02-08T03:20:42;2.60;73.20
36424;DHT22;22458;45.328;9.514;2023-02-08T03:23:23;2.70;73.20
36424;DHT22;22458;45.328;9.514;2023-02-08T03:31:29;2.60;73.20
36424;DHT22;22458;45.328;9.514;2023-02-08T03:34:09;2.60;73.20
36424;DHT22;22458;45.328;9.514;2023-02-08T03:36:43;2.60;73.20
36424;DHT22;22458;45.328;9.514;2023-02-08T03:39:16;2.50;73.10
36424;DHT22;22458;45.328;9.514;2023-02-08T03:41:45;2.40;73.30
36424;DHT22;22458;45.328;9.514;2023-02-08T03:44:17;2.40;73.40
36424;DHT22;22458;45.328;9.514;2023-02-08T03:46:55;2.30;73.40
36424;DHT22;22458;45.328;9.514;2023-02-08T03:49:26;2.20;73.70
36424;DHT22;22458;45.328;9.514;2023-02-08T03:51:54;2.20;73.90
36424;DHT22;22458;45.328;9.514;2023-02-08T03:54:24;2.30;73.80
36424;DHT22;22458;45.328;9.514;2023-02-08T03:59:37;2.30;73.40
36424;DHT22;22458;45.328;9.514;2023-02-08T04:02:06;2.30;73.30
36424;DHT22;22458;45.328;9.514;2023-02-08T04:04:38;2.30;73.20
36424;DHT22;22458;45.328;9.514;2023-02-08T04:07:05;2.30;73.20
36424;DHT22;22458;45.328;9.514;2023-02-08T04:09:31;2.30;73.20
36424;DHT22;22458;45.328;9.514;2023-02-08T04:11:57;2.40;73.20
36424;DHT22;22458;45.328;9.514;2023-02-08T04:14:23;2.30;73.10
36424;DHT22;22458;45.328;9.514;2023-02-08T04:16:49;2.30;73.20
36424;DHT22;22458;45.328;9.514;2023-02-08T04:19:15;2.40;73.10
36424;DHT22;22458;45.328;9.514;2023-02-08T04:21:40;2.40;73.10
36424;DHT22;22458;45.328;9.514;2023-02-08T04:24:06;2.50;73.10
36424;DHT22;22458;45.328;9.514;2023-02-08T04:26:32;2.50;73.10
36424;DHT22;22458;45.328;9.514;2023-02-08T04:28:57;2.50;73.10
36424;DHT22;22458;45.328;9.514;2023-02-08T04:31:23;2.50;73.10
36424;DHT22;22458;45.328;9.514;2023-02-08T04:33:49;2.40;73.30
36424;DHT22;22458;45.328;9.514;2023-02-08T04:36:15;2.40;73.30
36424;DHT22;22458;45.328;9.514;2023-02-08T04:38:40;2.40;73.30
36424;DHT22;22458;45.328;9.514;2023-02-08T04:41:06;2.30;73.30
36424;DHT22;22458;45.328;9.514;2023-02-08T04:43:32;2.30;73.40
36424;DHT22;22458;45.328;9.514;2023-02-08T04:45:57;2.30;73.40
36424;DHT22;22458;45.328;9.514;2023-02-08T04:48:23;2.30;73.50
36424;DHT22;22458;45.328;9.514;2023-02-08T04:50:49;2.20;73.60
36424;DHT22;22458;45.328;9.514;2023-02-08T04:53:15;2.20;73.60
36424;DHT22;22458;45.328;9.514;2023-02-08T04:55:40;2.20;73.60
36424;DHT22;22458;45.328;9.514;2023-02-08T04:58:06;2.20;73.70
36424;DHT22;22458;45.328;9.514;2023-02-08T05:00:32;2.10;73.70
36424;DHT22;22458;45.328;9.514;2023-02-08T05:02:58;2.00;73.90
36424;DHT22;22458;45.328;9.514;2023-02-08T05:05:25;1.90;74.20
36424;DHT22;22458;45.328;9.514;2023-02-08T05:07:52;1.80;74.40
36424;DHT22;22458;45.328;9.514;2023-02-08T05:10:18;1.60;74.50
36424;DHT22;22458;45.328;9.514;2023-02-08T05:12:43;1.40;74.80
36424;DHT22;22458;45.328;9.514;2023-02-08T05:15:10;1.30;75.20
36424;DHT22;22458;45.328;9.514;2023-02-08T05:17:36;1.30;75.50
36424;DHT22;22458;45.328;9.514;2023-02-08T05:20:04;1.30;75.70
36424;DHT22;22458;45.328;9.514;2023-02-08T05:22:31;1.30;75.80
36424;DHT22;22458;45.328;9.514;2023-02-08T05:24:57;1.30;75.80
36424;DHT22;22458;45.328;9.514;2023-02-08T05:27:23;1.20;75.80
36424;DHT22;22458;45.328;9.514;2023-02-08T05:29:48;1.20;76.00
36424;DHT22;22458;45.328;9.514;2023-02-08T05:32:16;1.10;76.10
36424;DHT22;22458;45.328;9.514;2023-02-08T05:34:43;1.10;76.10
36424;DHT22;22458;45.328;9.514;2023-02-08T05:37:08;1.10;76.10
36424;DHT22;22458;45.328;9.514;2023-02-08T05:39:34;1.10;76.20
36424;DHT22;22458;45.328;9.514;2023-02-08T05:42:00;1.10;76.20
36424;DHT22;22458;45.328;9.514;2023-02-08T05:44:26;1.00;76.20
36424;DHT22;22458;45.328;9.514;2023-02-08T05:46:51;1.00;76.30
36424;DHT22;22458;45.328;9.514;2023-02-08T05:49:17;0.90;76.90
36424;DHT22;22458;45.328;9.514;2023-02-08T05:51:44;0.90;76.50
36424;DHT22;22458;45.328;9.514;2023-02-08T05:54:10;1.00;76.60
36424;DHT22;22458;45.328;9.514;2023-02-08T05:56:35;1.00;76.60
36424;DHT22;22458;45.328;9.514;2023-02-08T05:59:02;1.00;76.60
36424;DHT22;22458;45.328;9.514;2023-02-08T06:01:28;1.00;76.70
36424;DHT22;22458;45.328;9.514;2023-02-08T06:03:54;1.00;76.70
36424;DHT22;22458;45.328;9.514;2023-02-08T06:06:20;1.00;76.80
36424;DHT22;22458;45.328;9.514;2023-02-08T06:08:46;1.00;76.80
36424;DHT22;22458;45.328;9.514;2023-02-08T06:11:12;1.00;76.80
36424;DHT22;22458;45.328;9.514;2023-02-08T06:13:37;1.00;76.90
36424;DHT22;22458;45.328;9.514;2023-02-08T06:16:04;0.90;76.90
36424;DHT22;22458;45.328;9.514;2023-02-08T06:18:30;0.90;77.20
36424;DHT22;22458;45.328;9.514;2023-02-08T06:20:56;0.90;77.40
36424;DHT22;22458;45.328;9.514;2023-02-08T06:23:22;0.90;77.40
36424;DHT22;22458;45.328;9.514;2023-02-08T06:25:49;1.00;77.40
36424;DHT22;22458;45.328;9.514;2023-02-08T06:28:14;0.90;77.40
36424;DHT22;22458;45.328;9.514;2023-02-08T06:30:40;0.90;77.40
36424;DHT22;22458;45.328;9.514;2023-02-08T06:33:06;0.90;77.40
36424;DHT22;22458;45.328;9.514;2023-02-08T06:35:32;0.90;77.40
36424;DHT22;22458;45.328;9.514;2023-02-08T06:37:58;0.90;77.30
36424;DHT22;22458;45.328;9.514;2023-02-08T06:40:24;0.80;77.50
36424;DHT22;22458;45.328;9.514;2023-02-08T06:42:50;0.80;77.50
36424;DHT22;22458;45.328;9.514;2023-02-08T06:45:16;0.80;77.60
36424;DHT22;22458;45.328;9.514;2023-02-08T06:47:42;0.80;77.80
36424;DHT22;22458;45.328;9.514;2023-02-08T06:50:09;0.80;77.70
36424;DHT22;22458;45.328;9.514;2023-02-08T06:52:35;0.80;77.80
36424;DHT22;22458;45.328;9.514;2023-02-08T06:55:01;0.80;77.70
36424;DHT22;22458;45.328;9.514;2023-02-08T06:57:27;0.90;77.80
36424;DHT22;22458;45.328;9.514;2023-02-08T06:59:53;0.90;77.80
36424;DHT22;22458;45.328;9.514;2023-02-08T07:02:19;0.80;78.00
36424;DHT22;22458;45.328;9.514;2023-02-08T07:04:46;0.80;78.20
36424;DHT22;22458;45.328;9.514;2023-02-08T07:07:13;0.80;78.20
36424;DHT22;22458;45.328;9.514;2023-02-08T07:09:39;0.90;78.30
36424;DHT22;22458;45.328;9.514;2023-02-08T07:12:05;0.90;78.20
36424;DHT22;22458;45.328;9.514;2023-02-08T07:14:33;0.90;78.30
36424;DHT22;22458;45.328;9.514;2023-02-08T07:17:00;0.90;78.30
36424;DHT22;22458;45.328;9.514;2023-02-08T07:19:26;0.90;78.30
36424;DHT22;22458;45.328;9.514;2023-02-08T07:21:52;0.90;78.40
36424;DHT22;22458;45.328;9.514;2023-02-08T07:24:18;0.90;78.60
36424;DHT22;22458;45.328;9.514;2023-02-08T07:26:44;0.90;78.70
36424;DHT22;22458;45.328;9.514;2023-02-08T07:29:09;1.00;78.90
36424;DHT22;22458;45.328;9.514;2023-02-08T07:31:35;1.00;79.00
36424;DHT22;22458;45.328;9.514;2023-02-08T07:34:01;1.00;79.10
36424;DHT22;22458;45.328;9.514;2023-02-08T07:36:26;1.00;79.20
36424;DHT22;22458;45.328;9.514;2023-02-08T07:38:52;1.10;79.80
36424;DHT22;22458;45.328;9.514;2023-02-08T07:41:18;1.20;79.10
36424;DHT22;22458;45.328;9.514;2023-02-08T07:43:44;1.30;79.10
36424;DHT22;22458;45.328;9.514;2023-02-08T07:46:12;1.30;79.10
36424;DHT22;22458;45.328;9.514;2023-02-08T07:48:38;1.40;79.20
36424;DHT22;22458;45.328;9.514;2023-02-08T07:51:04;1.40;79.20
36424;DHT22;22458;45.328;9.514;2023-02-08T07:53:31;1.40;79.20
36424;DHT22;22458;45.328;9.514;2023-02-08T07:55:59;1.50;79.40
36424;DHT22;22458;45.328;9.514;2023-02-08T07:58:25;1.50;79.40
36424;DHT22;22458;45.328;9.514;2023-02-08T08:00:52;1.60;79.40
36424;DHT22;22458;45.328;9.514;2023-02-08T08:03:18;1.70;79.40
36424;DHT22;22458;45.328;9.514;2023-02-08T08:05:44;1.70;79.40
36424;DHT22;22458;45.328;9.514;2023-02-08T08:08:10;1.80;79.40
36424;DHT22;22458;45.328;9.514;2023-02-08T08:10:37;1.90;79.50
36424;DHT22;22458;45.328;9.514;2023-02-08T08:13:03;1.90;79.40
36424;DHT22;22458;45.328;9.514;2023-02-08T08:15:29;2.00;79.40
36424;DHT22;22458;45.328;9.514;2023-02-08T08:17:55;2.00;79.30
36424;DHT22;22458;45.328;9.514;2023-02-08T08:20:21;2.00;79.40
36424;DHT22;22458;45.328;9.514;2023-02-08T08:22:47;2.10;79.50
36424;DHT22;22458;45.328;9.514;2023-02-08T08:25:13;2.20;79.60
36424;DHT22;22458;45.328;9.514;2023-02-08T08:27:39;2.30;79.60
36424;DHT22;22458;45.328;9.514;2023-02-08T08:30:06;2.40;79.50
36424;DHT22;22458;45.328;9.514;2023-02-08T08:32:32;2.50;79.40
36424;DHT22;22458;45.328;9.514;2023-02-08T08:34:58;2.50;79.50
36424;DHT22;22458;45.328;9.514;2023-02-08T08:37:24;2.60;79.50
36424;DHT22;22458;45.328;9.514;2023-02-08T08:39:49;2.70;79.50
36424;DHT22;22458;45.328;9.514;2023-02-08T08:42:15;2.70;79.40
36424;DHT22;22458;45.328;9.514;2023-02-08T08:44:41;2.90;79.40
36424;DHT22;22458;45.328;9.514;2023-02-08T08:47:08;2.90;79.30
36424;DHT22;22458;45.328;9.514;2023-02-08T08:49:34;3.00;79.40
36424;DHT22;22458;45.328;9.514;2023-02-08T08:51:59;3.10;79.30
36424;DHT22;22458;45.328;9.514;2023-02-08T08:54:25;3.20;79.30
36424;DHT22;22458;45.328;9.514;2023-02-08T08:56:51;3.30;79.30
36424;DHT22;22458;45.328;9.514;2023-02-08T08:59:17;3.30;79.30
36424;DHT22;22458;45.328;9.514;2023-02-08T09:01:43;3.40;79.20
36424;DHT22;22458;45.328;9.514;2023-02-08T09:04:10;3.50;79.20
36424;DHT22;22458;45.328;9.514;2023-02-08T09:06:36;3.60;79.10
36424;DHT22;22458;45.328;9.514;2023-02-08T09:09:02;3.80;79.10
36424;DHT22;22458;45.328;9.514;2023-02-08T09:11:28;3.80;79.00
36424;DHT22;22458;45.328;9.514;2023-02-08T09:13:54;3.90;78.90
36424;DHT22;22458;45.328;9.514;2023-02-08T09:16:22;4.10;78.90
36424;DHT22;22458;45.328;9.514;2023-02-08T09:18:48;4.20;78.80
36424;DHT22;22458;45.328;9.514;2023-02-08T09:21:18;4.30;78.70
36424;DHT22;22458;45.328;9.514;2023-02-08T09:23:45;4.30;78.70
36424;DHT22;22458;45.328;9.514;2023-02-08T09:26:15;4.30;78.60
36424;DHT22;22458;45.328;9.514;2023-02-08T09:28:42;4.50;78.70
36424;DHT22;22458;45.328;9.514;2023-02-08T09:33:38;4.60;78.50
36424;DHT22;22458;45.328;9.514;2023-02-08T09:36:04;4.70;78.40
36424;DHT22;22458;45.328;9.514;2023-02-08T09:38:32;4.80;78.30
36424;DHT22;22458;45.328;9.514;2023-02-08T09:41:17;4.90;78.20
36424;DHT22;22458;45.328;9.514;2023-02-08T09:46:22;5.00;78.00
36424;DHT22;22458;45.328;9.514;2023-02-08T09:48:51;5.10;77.90
36424;DHT22;22458;45.328;9.514;2023-02-08T09:51:53;5.20;77.70
36424;DHT22;22458;45.328;9.514;2023-02-08T09:54:38;5.20;77.40
36424;DHT22;22458;45.328;9.514;2023-02-08T09:57:11;5.30;77.50
36424;DHT22;22458;45.328;9.514;2023-02-08T09:59:39;5.40;77.30
36424;DHT22;22458;45.328;9.514;2023-02-08T10:02:24;5.50;77.00
36424;DHT22;22458;45.328;9.514;2023-02-08T10:07:24;5.80;76.80
36424;DHT22;22458;45.328;9.514;2023-02-08T10:09:52;6.20;76.90
36424;DHT22;22458;45.328;9.514;2023-02-08T10:18:25;7.50;74.00
36424;DHT22;22458;45.328;9.514;2023-02-08T10:24:40;8.00;71.70
36424;DHT22;22458;45.328;9.514;2023-02-08T10:30:31;8.30;70.60
36424;DHT22;22458;45.328;9.514;2023-02-08T10:33:01;8.40;69.20
36424;DHT22;22458;45.328;9.514;2023-02-08T10:35:32;8.50;68.30
36424;DHT22;22458;45.328;9.514;2023-02-08T10:38:25;8.50;68.40
36424;DHT22;22458;45.328;9.514;2023-02-08T10:41:00;8.50;67.50
36424;DHT22;22458;45.328;9.514;2023-02-08T10:49:20;8.50;66.40
36424;DHT22;22458;45.328;9.514;2023-02-08T10:51:47;8.50;66.20
36424;DHT22;22458;45.328;9.514;2023-02-08T10:54:14;8.60;65.90
36424;DHT22;22458;45.328;9.514;2023-02-08T10:56:46;8.70;65.20
36424;DHT22;22458;45.328;9.514;2023-02-08T10:59:30;8.90;64.60
36424;DHT22;22458;45.328;9.514;2023-02-08T11:01:58;9.20;64.20
36424;DHT22;22458;45.328;9.514;2023-02-08T11:04:24;9.20;63.30
36424;DHT22;22458;45.328;9.514;2023-02-08T11:06:50;9.20;62.80
36424;DHT22;22458;45.328;9.514;2023-02-08T11:11:49;9.00;61.60
36424;DHT22;22458;45.328;9.514;2023-02-08T11:14:29;8.90;61.80
36424;DHT22;22458;45.328;9.514;2023-02-08T11:16:56;8.90;61.30
36424;DHT22;22458;45.328;9.514;2023-02-08T11:19:31;8.80;61.60
36424;DHT22;22458;45.328;9.514;2023-02-08T11:21:58;8.70;61.50
36424;DHT22;22458;45.328;9.514;2023-02-08T11:24:34;8.70;61.20
36424;DHT22;22458;45.328;9.514;2023-02-08T11:27:34;8.70;60.60
36424;DHT22;22458;45.328;9.514;2023-02-08T11:32:40;8.60;59.90
36424;DHT22;22458;45.328;9.514;2023-02-08T11:35:21;8.60;59.80
36424;DHT22;22458;45.328;9.514;2023-02-08T11:37:49;8.70;59.50
36424;DHT22;22458;45.328;9.514;2023-02-08T11:40:22;8.70;59.50
36424;DHT22;22458;45.328;9.514;2023-02-08T11:42:48;8.70;59.00
36424;DHT22;22458;45.328;9.514;2023-02-08T11:45:32;8.60;58.60
36424;DHT22;22458;45.328;9.514;2023-02-08T11:47:58;8.70;58.60
36424;DHT22;22458;45.328;9.514;2023-02-08T11:50:31;8.70;58.70
36424;DHT22;22458;45.328;9.514;2023-02-08T11:53:04;8.80;58.50
36424;DHT22;22458;45.328;9.514;2023-02-08T11:55:32;8.80;58.20
36424;DHT22;22458;45.328;9.514;2023-02-08T11:58:03;8.70;58.10
36424;DHT22;22458;45.328;9.514;2023-02-08T12:00:35;8.80;58.10
36424;DHT22;22458;45.328;9.514;2023-02-08T12:11:33;8.90;57.50
36424;DHT22;22458;45.328;9.514;2023-02-08T12:14:43;8.90;57.50
36424;DHT22;22458;45.328;9.514;2023-02-08T12:22:40;9.10;57.30
36424;DHT22;22458;45.328;9.514;2023-02-08T12:28:17;9.20;57.00
36424;DHT22;22458;45.328;9.514;2023-02-08T12:36:36;9.40;56.80
36424;DHT22;22458;45.328;9.514;2023-02-08T12:39:19;9.40;56.60
36424;DHT22;22458;45.328;9.514;2023-02-08T12:45:15;9.50;56.30
36424;DHT22;22458;45.328;9.514;2023-02-08T12:48:03;9.50;56.10
36424;DHT22;22458;45.328;9.514;2023-02-08T12:50:35;9.50;56.00
36424;DHT22;22458;45.328;9.514;2023-02-08T12:55:42;9.70;56.00
36424;DHT22;22458;45.328;9.514;2023-02-08T12:58:29;9.70;55.70
36424;DHT22;22458;45.328;9.514;2023-02-08T13:00:59;9.70;55.10
36424;DHT22;22458;45.328;9.514;2023-02-08T13:05:56;9.70;54.80
36424;DHT22;22458;45.328;9.514;2023-02-08T13:11:14;9.60;53.70
36424;DHT22;22458;45.328;9.514;2023-02-08T13:13:43;9.60;53.90
36424;DHT22;22458;45.328;9.514;2023-02-08T13:16:38;9.60;53.60
36424;DHT22;22458;45.328;9.514;2023-02-08T13:19:45;9.60;53.10
36424;DHT22;22458;45.328;9.514;2023-02-08T13:22:13;9.60;53.00
36424;DHT22;22458;45.328;9.514;2023-02-08T13:24:43;9.60;53.10
36424;DHT22;22458;45.328;9.514;2023-02-08T13:27:16;9.60;52.90
36424;DHT22;22458;45.328;9.514;2023-02-08T13:29:47;9.60;52.90
36424;DHT22;22458;45.328;9.514;2023-02-08T13:34:54;9.60;52.80
36424;DHT22;22458;45.328;9.514;2023-02-08T13:37:28;9.60;52.80
36424;DHT22;22458;45.328;9.514;2023-02-08T13:40:25;9.50;52.60
36424;DHT22;22458;45.328;9.514;2023-02-08T13:43:07;9.50;52.60
36424;DHT22;22458;45.328;9.514;2023-02-08T13:45:42;9.50;52.80
36424;DHT22;22458;45.328;9.514;2023-02-08T13:48:15;9.50;53.00
36424;DHT22;22458;45.328;9.514;2023-02-08T13:50:55;9.60;53.10
36424;DHT22;22458;45.328;9.514;2023-02-08T13:56:40;9.70;52.80
36424;DHT22;22458;45.328;9.514;2023-02-08T14:04:52;9.80;52.90
36424;DHT22;22458;45.328;9.514;2023-02-08T14:07:27;9.80;52.80
36424;DHT22;22458;45.328;9.514;2023-02-08T14:10:31;9.80;52.90
36424;DHT22;22458;45.328;9.514;2023-02-08T14:13:30;9.80;52.80
36424;DHT22;22458;45.328;9.514;2023-02-08T14:19:01;9.90;52.70
36424;DHT22;22458;45.328;9.514;2023-02-08T14:21:44;9.90;52.70
36424;DHT22;22458;45.328;9.514;2023-02-08T14:26:42;9.90;52.50
36424;DHT22;22458;45.328;9.514;2023-02-08T14:29:20;9.90;52.60
36424;DHT22;22458;45.328;9.514;2023-02-08T14:31:47;9.90;52.30
36424;DHT22;22458;45.328;9.514;2023-02-08T14:34:28;9.90;52.30
36424;DHT22;22458;45.328;9.514;2023-02-08T14:37:23;9.90;52.20
36424;DHT22;22458;45.328;9.514;2023-02-08T14:45:50;9.80;51.90
36424;DHT22;22458;45.328;9.514;2023-02-08T14:48:47;9.70;51.90
36424;DHT22;22458;45.328;9.514;2023-02-08T14:51:20;9.80;51.90
36424;DHT22;22458;45.328;9.514;2023-02-08T14:53:51;9.70;51.80
36424;DHT22;22458;45.328;9.514;2023-02-08T14:56:30;9.70;51.60
36424;DHT22;22458;45.328;9.514;2023-02-08T14:59:00;9.70;51.30
36424;DHT22;22458;45.328;9.514;2023-02-08T15:04:01;9.70;51.40
36424;DHT22;22458;45.328;9.514;2023-02-08T15:09:27;9.70;51.00
36424;DHT22;22458;45.328;9.514;2023-02-08T15:12:15;9.70;51.10
36424;DHT22;22458;45.328;9.514;2023-02-08T15:14:42;9.70;51.00
36424;DHT22;22458;45.328;9.514;2023-02-08T15:17:44;9.70;51.10
36424;DHT22;22458;45.328;9.514;2023-02-08T15:20:32;9.70;51.10
36424;DHT22;22458;45.328;9.514;2023-02-08T15:23:04;9.70;51.10
36424;DHT22;22458;45.328;9.514;2023-02-08T15:25:35;9.70;51.00
36424;DHT22;22458;45.328;9.514;2023-02-08T15:28:13;9.70;50.90
36424;DHT22;22458;45.328;9.514;2023-02-08T15:30:41;9.70;51.00
36424;DHT22;22458;45.328;9.514;2023-02-08T15:33:13;9.70;51.00
36424;DHT22;22458;45.328;9.514;2023-02-08T15:35:39;9.80;50.90
36424;DHT22;22458;45.328;9.514;2023-02-08T15:38:18;9.80;50.90
36424;DHT22;22458;45.328;9.514;2023-02-08T15:41:08;9.80;50.80
36424;DHT22;22458;45.328;9.514;2023-02-08T15:43:34;9.80;50.80
36424;DHT22;22458;45.328;9.514;2023-02-08T15:46:03;9.80;51.20
36424;DHT22;22458;45.328;9.514;2023-02-08T15:48:31;9.80;51.30
36424;DHT22;22458;45.328;9.514;2023-02-08T15:50:59;9.70;51.10
36424;DHT22;22458;45.328;9.514;2023-02-08T15:53:25;9.70;51.10
36424;DHT22;22458;45.328;9.514;2023-02-08T15:55:56;9.70;51.00
36424;DHT22;22458;45.328;9.514;2023-02-08T15:58:38;9.60;51.00
36424;DHT22;22458;45.328;9.514;2023-02-08T16:01:06;9.60;51.10
36424;DHT22;22458;45.328;9.514;2023-02-08T16:03:34;9.50;51.20
36424;DHT22;22458;45.328;9.514;2023-02-08T16:06:05;9.40;51.30
36424;DHT22;22458;45.328;9.514;2023-02-08T16:08:36;9.40;51.30
36424;DHT22;22458;45.328;9.514;2023-02-08T16:11:34;9.30;51.30
36424;DHT22;22458;45.328;9.514;2023-02-08T16:14:02;9.20;51.30
36424;DHT22;22458;45.328;9.514;2023-02-08T16:19:21;9.00;51.60
36424;DHT22;22458;45.328;9.514;2023-02-08T16:21:48;9.00;51.50
36424;DHT22;22458;45.328;9.514;2023-02-08T16:26:59;8.90;51.40
36424;DHT22;22458;45.328;9.514;2023-02-08T16:29:36;8.70;51.10
36424;DHT22;22458;45.328;9.514;2023-02-08T16:32:05;8.50;51.20
36424;DHT22;22458;45.328;9.514;2023-02-08T16:34:34;8.40;51.20
36424;DHT22;22458;45.328;9.514;2023-02-08T16:37:02;8.30;51.40
36424;DHT22;22458;45.328;9.514;2023-02-08T16:39:51;8.20;51.40
36424;DHT22;22458;45.328;9.514;2023-02-08T16:42:37;8.10;51.40
36424;DHT22;22458;45.328;9.514;2023-02-08T16:47:41;7.90;51.80
36424;DHT22;22458;45.328;9.514;2023-02-08T16:50:11;7.80;51.70
36424;DHT22;22458;45.328;9.514;2023-02-08T16:52:37;7.80;51.80
36424;DHT22;22458;45.328;9.514;2023-02-08T16:55:03;7.80;51.90
36424;DHT22;22458;45.328;9.514;2023-02-08T16:57:48;7.80;51.80
36424;DHT22;22458;45.328;9.514;2023-02-08T17:00:27;7.80;51.80
36424;DHT22;22458;45.328;9.514;2023-02-08T17:02:54;7.70;51.90
36424;DHT22;22458;45.328;9.514;2023-02-08T17:05:21;7.70;52.00
36424;DHT22;22458;45.328;9.514;2023-02-08T17:07:49;7.70;52.00
36424;DHT22;22458;45.328;9.514;2023-02-08T17:12:46;7.70;52.20
36424;DHT22;22458;45.328;9.514;2023-02-08T17:15:11;7.60;52.20
36424;DHT22;22458;45.328;9.514;2023-02-08T17:17:37;7.60;52.30
36424;DHT22;22458;45.328;9.514;2023-02-08T17:20:03;7.50;52.30
36424;DHT22;22458;45.328;9.514;2023-02-08T17:22:32;7.60;52.30
36424;DHT22;22458;45.328;9.514;2023-02-08T17:24:58;7.60;52.30
36424;DHT22;22458;45.328;9.514;2023-02-08T17:27:24;7.50;52.30
36424;DHT22;22458;45.328;9.514;2023-02-08T17:29:50;7.50;52.40
36424;DHT22;22458;45.328;9.514;2023-02-08T17:32:16;7.50;52.30
36424;DHT22;22458;45.328;9.514;2023-02-08T17:34:42;7.50;52.30
36424;DHT22;22458;45.328;9.514;2023-02-08T17:37:07;7.50;52.30
36424;DHT22;22458;45.328;9.514;2023-02-08T17:39:33;7.50;52.40
36424;DHT22;22458;45.328;9.514;2023-02-08T17:41:59;7.40;52.40
36424;DHT22;22458;45.328;9.514;2023-02-08T17:44:25;7.40;52.60
36424;DHT22;22458;45.328;9.514;2023-02-08T17:46:50;7.30;52.60
36424;DHT22;22458;45.328;9.514;2023-02-08T17:49:16;7.30;52.70
36424;DHT22;22458;45.328;9.514;2023-02-08T17:51:42;7.20;52.80
36424;DHT22;22458;45.328;9.514;2023-02-08T17:54:08;7.20;52.90
36424;DHT22;22458;45.328;9.514;2023-02-08T17:56:35;7.10;53.00
36424;DHT22;22458;45.328;9.514;2023-02-08T17:59:01;7.10;53.20
36424;DHT22;22458;45.328;9.514;2023-02-08T18:01:30;7.00;53.20
36424;DHT22;22458;45.328;9.514;2023-02-08T18:03:58;7.00;53.30
36424;DHT22;22458;45.328;9.514;2023-02-08T18:06:25;6.90;53.50
36424;DHT22;22458;45.328;9.514;2023-02-08T18:08:53;6.90;53.60
36424;DHT22;22458;45.328;9.514;2023-02-08T18:11:19;6.90;53.80
36424;DHT22;22458;45.328;9.514;2023-02-08T18:13:46;6.80;53.90
36424;DHT22;22458;45.328;9.514;2023-02-08T18:16:16;6.80;53.90
36424;DHT22;22458;45.328;9.514;2023-02-08T18:18:42;6.80;54.00
36424;DHT22;22458;45.328;9.514;2023-02-08T18:21:14;6.80;54.10
36424;DHT22;22458;45.328;9.514;2023-02-08T18:23:42;6.80;54.30
36424;DHT22;22458;45.328;9.514;2023-02-08T18:26:14;6.80;54.40
36424;DHT22;22458;45.328;9.514;2023-02-08T18:28:40;6.80;54.50
36424;DHT22;22458;45.328;9.514;2023-02-08T18:31:11;6.90;54.60
36424;DHT22;22458;45.328;9.514;2023-02-08T18:33:40;6.90;54.60
36424;DHT22;22458;45.328;9.514;2023-02-08T18:36:08;6.90;54.60
36424;DHT22;22458;45.328;9.514;2023-02-08T18:38:38;7.00;54.70
36424;DHT22;22458;45.328;9.514;2023-02-08T18:41:09;6.90;54.70